sensor_id;sensor_type;location;lat;lon;timestamp;pressure;altitude;pressure_sealevel;temperature;humidity
45040;BME280;30778;53.574;7.770;2023-05-08T00:01:39;102302.03;;;8.40;48.80
45040;BME280;30778;53.574;7.770;2023-05-08T00:04:05;102308.19;;;8.33;48.65
45040;BME280;30778;53.574;7.770;2023-05-08T00:06:30;102302.06;;;8.39;49.11
45040;BME280;30778;53.574;7.770;2023-05-08T00:08:56;102303.75;;;8.44;48.67
45040;BME280;30778;53.574;7.770;2023-05-08T00:11:21;102309.88;;;8.35;48.73
45040;BME280;30778;53.574;7.770;2023-05-08T00:13:47;102302.84;;;8.50;48.48
45040;BME280;30778;53.574;7.770;2023-05-08T00:16:12;102302.88;;;8.42;48.38
45040;BME280;30778;53.574;7.770;2023-05-08T00:18:38;102296.13;;;8.20;48.93
45040;BME280;30778;53.574;7.770;2023-05-08T00:21:04;102301.31;;;8.21;48.59
45040;BME280;30778;53.574;7.770;2023-05-08T00:23:32;102297.75;;;8.36;48.62
45040;BME280;30778;53.574;7.770;2023-05-08T00:26:00;102302.06;;;8.35;48.09
45040;BME280;30778;53.574;7.770;2023-05-08T00:28:26;102303.00;;;8.27;48.40
45040;BME280;30778;53.574;7.770;2023-05-08T00:30:51;102304.09;;;7.93;48.95
45040;BME280;30778;53.574;7.770;2023-05-08T00:33:17;102303.97;;;8.13;48.20
45040;BME280;30778;53.574;7.770;2023-05-08T00:35:43;102299.69;;;8.09;48.24
45040;BME280;30778;53.574;7.770;2023-05-08T00:38:09;102294.41;;;8.19;47.97
45040;BME280;30778;53.574;7.770;2023-05-08T00:40:34;102297.94;;;8.08;48.22
45040;BME280;30778;53.574;7.770;2023-05-08T00:43:01;102298.66;;;8.32;47.71
45040;BME280;30778;53.574;7.770;2023-05-08T00:45:33;102296.97;;;8.22;47.83
45040;BME280;30778;53.574;7.770;2023-05-08T00:48:01;102293.59;;;8.09;47.87
45040;BME280;30778;53.574;7.770;2023-05-08T00:50:27;102303.31;;;7.78;48.50
45040;BME280;30778;53.574;7.770;2023-05-08T00:52:54;102291.03;;;8.01;47.88
45040;BME280;30778;53.574;7.770;2023-05-08T00:55:21;102299.66;;;8.11;47.65
45040;BME280;30778;53.574;7.770;2023-05-08T00:57:47;102293.66;;;8.03;47.93
45040;BME280;30778;53.574;7.770;2023-05-08T01:00:15;102293.69;;;7.95;47.98
45040;BME280;30778;53.574;7.770;2023-05-08T01:02:43;102291.94;;;7.99;47.48
45040;BME280;30778;53.574;7.770;2023-05-08T01:05:09;102294.66;;;7.76;47.95
45040;BME280;30778;53.574;7.770;2023-05-08T01:07:35;102299.06;;;7.64;48.62
45040;BME280;30778;53.574;7.770;2023-05-08T01:10:00;102301.28;;;8.24;46.98
45040;BME280;30778;53.574;7.770;2023-05-08T01:15:17;102304.84;;;8.12;47.44
45040;BME280;30778;53.574;7.770;2023-05-08T01:18:11;102298.00;;;7.99;47.94
45040;BME280;30778;53.574;7.770;2023-05-08T01:24:01;102300.28;;;8.45;47.06
45040;BME280;30778;53.574;7.770;2023-05-08T01:26:41;102305.69;;;8.19;47.68
45040;BME280;30778;53.574;7.770;2023-05-08T01:34:32;102297.91;;;8.14;47.93
45040;BME280;30778;53.574;7.770;2023-05-08T01:37:01;102299.72;;;8.00;48.25
45040;BME280;30778;53.574;7.770;2023-05-08T01:42:36;102312.59;;;8.22;47.79
45040;BME280;30778;53.574;7.770;2023-05-08T01:45:08;102308.28;;;8.18;47.95
45040;BME280;30778;53.574;7.770;2023-05-08T01:47:36;102308.34;;;8.08;48.16
45040;BME280;30778;53.574;7.770;2023-05-08T01:50:09;102314.41;;;8.10;48.03
45040;BME280;30778;53.574;7.770;2023-05-08T01:52:50;102310.00;;;8.22;47.59
45040;BME280;30778;53.574;7.770;2023-05-08T01:55:23;102307.56;;;7.99;48.41
45040;BME280;30778;53.574;7.770;2023-05-08T01:57:53;102306.63;;;8.04;48.26
45040;BME280;30778;53.574;7.770;2023-05-08T02:00:21;102295.47;;;7.90;48.18
45040;BME280;30778;53.574;7.770;2023-05-08T02:02:50;102296.34;;;7.86;48.42
45040;BME280;30778;53.574;7.770;2023-05-08T02:05:17;102289.25;;;8.06;48.04
45040;BME280;30778;53.574;7.770;2023-05-08T02:07:46;102286.78;;;7.86;48.54
45040;BME280;30778;53.574;7.770;2023-05-08T02:10:13;102277.19;;;7.94;48.32
45040;BME280;30778;53.574;7.770;2023-05-08T02:12:42;102281.66;;;7.80;48.76
45040;BME280;30778;53.574;7.770;2023-05-08T02:15:11;102280.72;;;7.84;48.84
45040;BME280;30778;53.574;7.770;2023-05-08T02:17:38;102280.66;;;7.98;48.57
45040;BME280;30778;53.574;7.770;2023-05-08T02:20:05;102283.38;;;7.78;48.94
45040;BME280;30778;53.574;7.770;2023-05-08T02:22:33;102286.88;;;7.72;49.19
45040;BME280;30778;53.574;7.770;2023-05-08T02:25:00;102276.47;;;7.71;49.13
45040;BME280;30778;53.574;7.770;2023-05-08T02:27:27;102281.75;;;7.48;49.70
45040;BME280;30778;53.574;7.770;2023-05-08T02:29:55;102280.88;;;7.63;49.26
45040;BME280;30778;53.574;7.770;2023-05-08T02:32:24;102272.22;;;7.44;49.92
45040;BME280;30778;53.574;7.770;2023-05-08T02:34:50;102279.13;;;7.51;49.64
45040;BME280;30778;53.574;7.770;2023-05-08T02:37:18;102273.94;;;7.54;49.43
45040;BME280;30778;53.574;7.770;2023-05-08T02:39:46;102276.63;;;7.36;50.32
45040;BME280;30778;53.574;7.770;2023-05-08T02:42:13;102278.38;;;7.32;50.14
45040;BME280;30778;53.574;7.770;2023-05-08T02:44:39;102271.34;;;7.49;50.16
45040;BME280;30778;53.574;7.770;2023-05-08T02:47:16;102282.69;;;7.28;50.54
45040;BME280;30778;53.574;7.770;2023-05-08T02:52:27;102273.13;;;7.37;50.16
45040;BME280;30778;53.574;7.770;2023-05-08T02:55:01;102270.53;;;7.43;49.58
45040;BME280;30778;53.574;7.770;2023-05-08T03:00:17;102274.06;;;7.23;50.30
45040;BME280;30778;53.574;7.770;2023-05-08T03:03:06;102263.75;;;6.96;51.02
45040;BME280;30778;53.574;7.770;2023-05-08T03:05:37;102264.56;;;7.08;50.27
45040;BME280;30778;53.574;7.770;2023-05-08T03:08:13;102269.84;;;6.81;51.14
45040;BME280;30778;53.574;7.770;2023-05-08T03:10:42;102263.81;;;6.65;51.60
45040;BME280;30778;53.574;7.770;2023-05-08T03:13:11;102268.97;;;6.77;50.89
45040;BME280;30778;53.574;7.770;2023-05-08T03:15:45;102263.78;;;6.62;51.33
45040;BME280;30778;53.574;7.770;2023-05-08T03:18:15;102262.94;;;6.74;50.89
45040;BME280;30778;53.574;7.770;2023-05-08T03:20:44;102270.72;;;6.66;51.24
45040;BME280;30778;53.574;7.770;2023-05-08T03:23:12;102278.53;;;6.69;51.18
45040;BME280;30778;53.574;7.770;2023-05-08T03:25:43;102273.31;;;6.75;50.92
45040;BME280;30778;53.574;7.770;2023-05-08T03:28:10;102267.25;;;6.70;51.12
45040;BME280;30778;53.574;7.770;2023-05-08T03:30:39;102271.59;;;6.60;51.42
45040;BME280;30778;53.574;7.770;2023-05-08T03:33:10;102266.38;;;6.74;50.94
45040;BME280;30778;53.574;7.770;2023-05-08T03:35:38;102272.47;;;6.61;51.06
45040;BME280;30778;53.574;7.770;2023-05-08T03:38:05;102272.47;;;6.67;51.26
45040;BME280;30778;53.574;7.770;2023-05-08T03:40:33;102274.19;;;6.59;51.44
45040;BME280;30778;53.574;7.770;2023-05-08T03:43:09;102267.28;;;6.45;51.59
45040;BME280;30778;53.574;7.770;2023-05-08T03:45:37;102275.09;;;6.58;51.44
45040;BME280;30778;53.574;7.770;2023-05-08T03:48:08;102273.34;;;6.43;51.75
45040;BME280;30778;53.574;7.770;2023-05-08T03:50:36;102277.66;;;6.61;51.14
45040;BME280;30778;53.574;7.770;2023-05-08T03:53:04;102274.22;;;6.54;51.31
45040;BME280;30778;53.574;7.770;2023-05-08T03:55:30;102274.22;;;6.56;51.15
45040;BME280;30778;53.574;7.770;2023-05-08T03:58:30;102277.69;;;6.48;51.52
45040;BME280;30778;53.574;7.770;2023-05-08T04:06:23;102286.34;;;6.49;51.26
45040;BME280;30778;53.574;7.770;2023-05-08T04:12:21;102281.13;;;6.57;50.94
45040;BME280;30778;53.574;7.770;2023-05-08T04:14:53;102288.06;;;6.61;50.95
45040;BME280;30778;53.574;7.770;2023-05-08T04:17:38;102282.00;;;6.36;51.47
45040;BME280;30778;53.574;7.770;2023-05-08T04:20:07;102281.13;;;6.54;50.80
45040;BME280;30778;53.574;7.770;2023-05-08T04:22:36;102282.88;;;6.32;51.67
45040;BME280;30778;53.574;7.770;2023-05-08T04:25:05;102282.00;;;6.45;51.07
45040;BME280;30778;53.574;7.770;2023-05-08T04:27:32;102293.22;;;6.22;51.69
45040;BME280;30778;53.574;7.770;2023-05-08T04:29:58;102298.47;;;6.47;51.22
45040;BME280;30778;53.574;7.770;2023-05-08T04:32:25;102309.72;;;6.43;50.96
45040;BME280;30778;53.574;7.770;2023-05-08T04:34:51;102307.97;;;6.59;50.70
45040;BME280;30778;53.574;7.770;2023-05-08T04:37:25;102305.38;;;6.36;51.43
45040;BME280;30778;53.574;7.770;2023-05-08T04:39:51;102302.78;;;6.60;50.72
45040;BME280;30778;53.574;7.770;2023-05-08T04:42:18;102306.25;;;6.67;50.39
45040;BME280;30778;53.574;7.770;2023-05-08T04:44:44;102306.25;;;6.56;50.73
45040;BME280;30778;53.574;7.770;2023-05-08T04:47:10;102310.59;;;6.46;50.83
45040;BME280;30778;53.574;7.770;2023-05-08T04:49:35;102307.09;;;6.57;50.56
45040;BME280;30778;53.574;7.770;2023-05-08T04:52:01;102306.25;;;6.78;49.67
45040;BME280;30778;53.574;7.770;2023-05-08T04:54:26;102308.84;;;6.73;50.19
45040;BME280;30778;53.574;7.770;2023-05-08T04:56:52;102307.91;;;7.05;49.46
45040;BME280;30778;53.574;7.770;2023-05-08T04:59:20;102318.31;;;7.11;49.25
45040;BME280;30778;53.574;7.770;2023-05-08T05:01:46;102319.06;;;7.47;48.47
45040;BME280;30778;53.574;7.770;2023-05-08T05:04:12;102311.56;;;8.44;46.02
45040;BME280;30778;53.574;7.770;2023-05-08T05:06:37;102311.63;;;8.35;45.84
45040;BME280;30778;53.574;7.770;2023-05-08T05:09:02;102314.31;;;8.26;45.50
45040;BME280;30778;53.574;7.770;2023-05-08T05:11:29;102311.84;;;8.04;45.95
45040;BME280;30778;53.574;7.770;2023-05-08T05:13:55;102313.63;;;7.98;46.40
45040;BME280;30778;53.574;7.770;2023-05-08T05:16:21;102311.84;;;8.04;46.50
45040;BME280;30778;53.574;7.770;2023-05-08T05:18:47;102310.97;;;8.04;45.86
45040;BME280;30778;53.574;7.770;2023-05-08T05:21:13;102321.50;;;7.91;46.13
45040;BME280;30778;53.574;7.770;2023-05-08T05:23:39;102316.47;;;7.38;47.54
45040;BME280;30778;53.574;7.770;2023-05-08T05:26:05;102316.28;;;7.91;47.28
45040;BME280;30778;53.574;7.770;2023-05-08T05:28:31;102313.66;;;9.75;42.43
45040;BME280;30778;53.574;7.770;2023-05-08T05:30:57;102304.31;;;11.22;38.94
45040;BME280;30778;53.574;7.770;2023-05-08T05:33:23;102304.44;;;11.98;37.02
45040;BME280;30778;53.574;7.770;2023-05-08T05:35:49;102297.00;;;13.19;35.67
45040;BME280;30778;53.574;7.770;2023-05-08T05:38:14;102297.72;;;14.38;33.22
45040;BME280;30778;53.574;7.770;2023-05-08T05:40:40;102297.06;;;14.83;31.82
45040;BME280;30778;53.574;7.770;2023-05-08T05:43:05;102297.50;;;14.46;32.49
45040;BME280;30778;53.574;7.770;2023-05-08T05:45:31;102290.22;;;13.41;33.83
45040;BME280;30778;53.574;7.770;2023-05-08T05:47:57;102295.28;;;12.50;35.67
45040;BME280;30778;53.574;7.770;2023-05-08T05:50:24;102300.81;;;12.04;36.73
45040;BME280;30778;53.574;7.770;2023-05-08T05:52:52;102298.53;;;11.88;37.45
45040;BME280;30778;53.574;7.770;2023-05-08T05:55:19;102297.28;;;12.42;36.12
45040;BME280;30778;53.574;7.770;2023-05-08T05:57:46;102302.88;;;11.91;37.43
45040;BME280;30778;53.574;7.770;2023-05-08T06:00:14;102295.56;;;12.04;37.11
45040;BME280;30778;53.574;7.770;2023-05-08T06:02:44;102284.31;;;12.70;35.95
45040;BME280;30778;53.574;7.770;2023-05-08T06:05:12;102291.56;;;12.59;35.52
45040;BME280;30778;53.574;7.770;2023-05-08T06:07:38;102285.59;;;13.49;34.56
45040;BME280;30778;53.574;7.770;2023-05-08T06:10:04;102287.34;;;13.49;33.32
45040;BME280;30778;53.574;7.770;2023-05-08T06:12:30;102288.16;;;12.21;36.07
45040;BME280;30778;53.574;7.770;2023-05-08T06:14:57;102288.97;;;11.47;37.86
45040;BME280;30778;53.574;7.770;2023-05-08T06:17:22;102292.94;;;11.65;37.63
45040;BME280;30778;53.574;7.770;2023-05-08T06:19:48;102288.22;;;10.46;39.95
45040;BME280;30778;53.574;7.770;2023-05-08T06:22:18;102300.50;;;9.86;41.03
45040;BME280;30778;53.574;7.770;2023-05-08T06:24:44;102306.03;;;9.62;41.57
45040;BME280;30778;53.574;7.770;2023-05-08T06:27:10;102295.91;;;10.02;40.92
45040;BME280;30778;53.574;7.770;2023-05-08T06:29:36;102304.25;;;9.64;41.79
45040;BME280;30778;53.574;7.770;2023-05-08T06:32:02;102298.00;;;9.04;43.40
45040;BME280;30778;53.574;7.770;2023-05-08T06:34:27;102285.28;;;9.49;42.72
45040;BME280;30778;53.574;7.770;2023-05-08T06:36:53;102290.47;;;10.14;41.02
45040;BME280;30778;53.574;7.770;2023-05-08T06:39:18;102283.69;;;12.94;36.47
45040;BME280;30778;53.574;7.770;2023-05-08T06:41:47;102276.25;;;13.99;33.83
45040;BME280;30778;53.574;7.770;2023-05-08T06:44:21;102282.94;;;15.80;31.34
45040;BME280;30778;53.574;7.770;2023-05-08T06:46:47;102282.97;;;16.02;30.69
45040;BME280;30778;53.574;7.770;2023-05-08T06:49:12;102282.06;;;16.44;30.00
45040;BME280;30778;53.574;7.770;2023-05-08T06:51:40;102286.91;;;15.90;30.39
45040;BME280;30778;53.574;7.770;2023-05-08T06:54:06;102288.88;;;15.16;31.43
45040;BME280;30778;53.574;7.770;2023-05-08T06:56:35;102285.34;;;16.08;30.52
45040;BME280;30778;53.574;7.770;2023-05-08T06:59:00;102275.91;;;16.03;30.06
45040;BME280;30778;53.574;7.770;2023-05-08T07:01:26;102280.13;;;15.85;30.40
45040;BME280;30778;53.574;7.770;2023-05-08T07:03:54;102272.44;;;15.78;30.46
45040;BME280;30778;53.574;7.770;2023-05-08T07:06:20;102277.72;;;16.63;29.69
45040;BME280;30778;53.574;7.770;2023-05-08T07:08:45;102269.81;;;17.23;29.25
45040;BME280;30778;53.574;7.770;2023-05-08T07:11:11;102276.63;;;17.48;28.68
45040;BME280;30778;53.574;7.770;2023-05-08T07:13:36;102265.75;;;17.54;28.21
45040;BME280;30778;53.574;7.770;2023-05-08T07:16:07;102272.84;;;17.33;28.29
45040;BME280;30778;53.574;7.770;2023-05-08T07:18:33;102264.00;;;17.15;28.67
45040;BME280;30778;53.574;7.770;2023-05-08T07:20:59;102271.00;;;18.10;26.95
45040;BME280;30778;53.574;7.770;2023-05-08T07:23:25;102261.84;;;18.34;27.68
45040;BME280;30778;53.574;7.770;2023-05-08T07:25:54;102263.91;;;18.10;27.53
45040;BME280;30778;53.574;7.770;2023-05-08T07:28:19;102265.81;;;18.25;26.71
45040;BME280;30778;53.574;7.770;2023-05-08T07:30:45;102269.97;;;17.00;28.69
45040;BME280;30778;53.574;7.770;2023-05-08T07:33:11;102261.03;;;16.83;29.30
45040;BME280;30778;53.574;7.770;2023-05-08T07:35:38;102263.63;;;17.80;28.01
45040;BME280;30778;53.574;7.770;2023-05-08T07:38:05;102256.97;;;17.54;28.36
45040;BME280;30778;53.574;7.770;2023-05-08T07:40:31;102258.91;;;18.23;27.40
45040;BME280;30778;53.574;7.770;2023-05-08T07:42:57;102260.13;;;18.33;27.25
45040;BME280;30778;53.574;7.770;2023-05-08T07:45:23;102264.84;;;18.61;27.21
45040;BME280;30778;53.574;7.770;2023-05-08T07:47:51;102263.19;;;19.09;26.52
45040;BME280;30778;53.574;7.770;2023-05-08T07:50:17;102275.66;;;19.73;25.81
45040;BME280;30778;53.574;7.770;2023-05-08T07:52:43;102264.94;;;18.25;27.50
45040;BME280;30778;53.574;7.770;2023-05-08T07:55:09;102262.50;;;17.10;29.23
45040;BME280;30778;53.574;7.770;2023-05-08T07:57:36;102259.78;;;16.72;30.50
45040;BME280;30778;53.574;7.770;2023-05-08T08:00:03;102268.06;;;16.01;31.00
45040;BME280;30778;53.574;7.770;2023-05-08T08:02:38;102263.38;;;15.86;32.19
45040;BME280;30778;53.574;7.770;2023-05-08T08:05:05;102260.75;;;15.16;32.12
45040;BME280;30778;53.574;7.770;2023-05-08T08:07:31;102262.84;;;15.32;32.67
45040;BME280;30778;53.574;7.770;2023-05-08T08:10:00;102275.38;;;14.76;33.36
45040;BME280;30778;53.574;7.770;2023-05-08T08:12:26;102274.91;;;14.39;33.84
45040;BME280;30778;53.574;7.770;2023-05-08T08:14:53;102270.69;;;14.34;33.93
45040;BME280;30778;53.574;7.770;2023-05-08T08:17:19;102273.34;;;13.78;35.40
45040;BME280;30778;53.574;7.770;2023-05-08T08:19:45;102273.34;;;13.78;35.78
45040;BME280;30778;53.574;7.770;2023-05-08T08:22:13;102277.25;;;13.66;35.77
45040;BME280;30778;53.574;7.770;2023-05-08T08:24:39;102275.47;;;13.67;36.24
45040;BME280;30778;53.574;7.770;2023-05-08T08:27:04;102263.94;;;14.26;35.10
45040;BME280;30778;53.574;7.770;2023-05-08T08:29:30;102269.94;;;15.06;33.83
45040;BME280;30778;53.574;7.770;2023-05-08T08:31:55;102266.38;;;15.54;33.02
45040;BME280;30778;53.574;7.770;2023-05-08T08:34:21;102264.16;;;14.71;34.31
45040;BME280;30778;53.574;7.770;2023-05-08T08:36:46;102264.97;;;14.22;35.16
45040;BME280;30778;53.574;7.770;2023-05-08T08:39:12;102263.81;;;14.04;36.03
45040;BME280;30778;53.574;7.770;2023-05-08T08:41:38;102256.44;;;13.87;36.27
45040;BME280;30778;53.574;7.770;2023-05-08T08:44:04;102254.94;;;13.80;36.17
45040;BME280;30778;53.574;7.770;2023-05-08T08:46:31;102256.13;;;13.10;37.54
45040;BME280;30778;53.574;7.770;2023-05-08T08:49:02;102241.69;;;14.09;36.70
45040;BME280;30778;53.574;7.770;2023-05-08T08:51:32;102242.81;;;14.29;36.62
45040;BME280;30778;53.574;7.770;2023-05-08T08:54:02;102244.75;;;13.69;36.97
45040;BME280;30778;53.574;7.770;2023-05-08T08:56:29;102240.75;;;13.27;37.94
45040;BME280;30778;53.574;7.770;2023-05-08T08:58:56;102228.38;;;13.61;37.54
45040;BME280;30778;53.574;7.770;2023-05-08T09:01:24;102236.00;;;14.73;36.03
45040;BME280;30778;53.574;7.770;2023-05-08T09:03:51;102224.59;;;14.49;36.05
45040;BME280;30778;53.574;7.770;2023-05-08T09:06:18;102229.13;;;14.46;35.88
45040;BME280;30778;53.574;7.770;2023-05-08T09:08:43;102234.13;;;14.52;35.78
45040;BME280;30778;53.574;7.770;2023-05-08T09:11:09;102239.47;;;13.97;36.91
45040;BME280;30778;53.574;7.770;2023-05-08T09:13:34;102231.34;;;13.48;38.13
45040;BME280;30778;53.574;7.770;2023-05-08T09:16:00;102224.69;;;14.46;36.19
45040;BME280;30778;53.574;7.770;2023-05-08T09:18:26;102218.38;;;14.99;35.70
45040;BME280;30778;53.574;7.770;2023-05-08T09:20:52;102224.06;;;14.88;35.88
45040;BME280;30778;53.574;7.770;2023-05-08T09:23:19;102222.84;;;14.73;35.95
45040;BME280;30778;53.574;7.770;2023-05-08T09:25:48;102218.50;;;15.87;34.15
45040;BME280;30778;53.574;7.770;2023-05-08T09:28:17;102226.00;;;15.54;34.66
45040;BME280;30778;53.574;7.770;2023-05-08T09:33:16;102232.09;;;15.98;34.47
45040;BME280;30778;53.574;7.770;2023-05-08T09:35:41;102235.41;;;16.04;34.14
45040;BME280;30778;53.574;7.770;2023-05-08T09:38:07;102238.75;;;16.09;33.41
45040;BME280;30778;53.574;7.770;2023-05-08T09:40:32;102234.91;;;15.94;34.17
45040;BME280;30778;53.574;7.770;2023-05-08T09:43:11;102240.09;;;15.53;35.21
45040;BME280;30778;53.574;7.770;2023-05-08T09:45:37;102243.25;;;15.83;34.47
45040;BME280;30778;53.574;7.770;2023-05-08T09:48:05;102239.72;;;15.84;34.40
45040;BME280;30778;53.574;7.770;2023-05-08T09:50:31;102228.47;;;16.23;34.61
45040;BME280;30778;53.574;7.770;2023-05-08T09:52:57;102237.81;;;16.71;34.04
45040;BME280;30778;53.574;7.770;2023-05-08T09:55:23;102230.72;;;16.92;32.91
45040;BME280;30778;53.574;7.770;2023-05-08T09:57:52;102227.84;;;17.73;32.65
45040;BME280;30778;53.574;7.770;2023-05-08T10:00:19;102233.09;;;17.17;32.68
45040;BME280;30778;53.574;7.770;2023-05-08T10:02:58;102226.66;;;16.24;33.66
45040;BME280;30778;53.574;7.770;2023-05-08T10:05:32;102239.81;;;16.25;34.74
45040;BME280;30778;53.574;7.770;2023-05-08T10:10:43;102227.59;;;17.03;33.03
45040;BME280;30778;53.574;7.770;2023-05-08T10:13:09;102227.94;;;16.95;33.10
45040;BME280;30778;53.574;7.770;2023-05-08T10:15:37;102225.13;;;16.79;33.48
45040;BME280;30778;53.574;7.770;2023-05-08T10:18:04;102228.44;;;17.41;32.10
45040;BME280;30778;53.574;7.770;2023-05-08T10:20:31;102221.13;;;17.29;33.31
45040;BME280;30778;53.574;7.770;2023-05-08T10:22:57;102222.75;;;17.51;32.52
45040;BME280;30778;53.574;7.770;2023-05-08T10:25:24;102220.03;;;17.14;32.71
45040;BME280;30778;53.574;7.770;2023-05-08T10:28:06;102228.88;;;17.13;32.37
45040;BME280;30778;53.574;7.770;2023-05-08T10:30:37;102224.66;;;17.28;33.08
45040;BME280;30778;53.574;7.770;2023-05-08T10:33:13;102219.69;;;17.03;33.00
45040;BME280;30778;53.574;7.770;2023-05-08T10:35:39;102225.09;;;16.60;34.26
45040;BME280;30778;53.574;7.770;2023-05-08T10:38:07;102224.34;;;16.57;33.99
45040;BME280;30778;53.574;7.770;2023-05-08T10:40:34;102214.66;;;16.57;33.77
45040;BME280;30778;53.574;7.770;2023-05-08T10:43:00;102212.59;;;16.85;33.57
45040;BME280;30778;53.574;7.770;2023-05-08T10:45:26;102206.88;;;16.75;33.93
45040;BME280;30778;53.574;7.770;2023-05-08T10:48:24;102202.31;;;16.58;33.75
45040;BME280;30778;53.574;7.770;2023-05-08T10:53:45;102196.16;;;17.35;33.54
45040;BME280;30778;53.574;7.770;2023-05-08T10:56:13;102188.84;;;16.85;34.65
45040;BME280;30778;53.574;7.770;2023-05-08T10:58:38;102200.47;;;16.60;34.03
45040;BME280;30778;53.574;7.770;2023-05-08T11:03:44;102195.47;;;16.93;34.35
45040;BME280;30778;53.574;7.770;2023-05-08T11:06:11;102191.31;;;17.26;34.08
45040;BME280;30778;53.574;7.770;2023-05-08T11:08:50;102189.25;;;16.94;33.12
45040;BME280;30778;53.574;7.770;2023-05-08T11:11:23;102199.63;;;16.99;34.57
45040;BME280;30778;53.574;7.770;2023-05-08T11:14:08;102190.19;;;16.93;34.78
45040;BME280;30778;53.574;7.770;2023-05-08T11:19:25;102194.47;;;16.96;34.06
45040;BME280;30778;53.574;7.770;2023-05-08T11:22:14;102191.16;;;17.29;34.35
45040;BME280;30778;53.574;7.770;2023-05-08T11:24:46;102188.25;;;16.97;34.16
45040;BME280;30778;53.574;7.770;2023-05-08T11:27:13;102179.94;;;16.67;34.66
45040;BME280;30778;53.574;7.770;2023-05-08T11:29:39;102177.69;;;16.57;34.60
45040;BME280;30778;53.574;7.770;2023-05-08T11:32:04;102180.84;;;16.06;35.60
45040;BME280;30778;53.574;7.770;2023-05-08T11:37:28;102165.22;;;16.61;33.98
45040;BME280;30778;53.574;7.770;2023-05-08T11:43:18;102167.22;;;16.76;34.64
45040;BME280;30778;53.574;7.770;2023-05-08T11:45:45;102177.19;;;16.89;34.22
45040;BME280;30778;53.574;7.770;2023-05-08T11:48:13;102173.84;;;16.85;34.04
45040;BME280;30778;53.574;7.770;2023-05-08T11:50:40;102164.28;;;17.20;33.72
45040;BME280;30778;53.574;7.770;2023-05-08T11:53:06;102160.25;;;17.84;32.90
45040;BME280;30778;53.574;7.770;2023-05-08T11:55:35;102161.28;;;18.83;32.75
45040;BME280;30778;53.574;7.770;2023-05-08T11:58:00;102157.59;;;18.86;31.45
45040;BME280;30778;53.574;7.770;2023-05-08T12:00:26;102163.75;;;18.71;31.07
45040;BME280;30778;53.574;7.770;2023-05-08T12:02:52;102163.47;;;18.26;31.96
45040;BME280;30778;53.574;7.770;2023-05-08T12:05:25;102156.78;;;18.19;32.17
45040;BME280;30778;53.574;7.770;2023-05-08T12:07:51;102156.50;;;18.41;33.46
45040;BME280;30778;53.574;7.770;2023-05-08T12:10:16;102155.66;;;17.71;33.36
45040;BME280;30778;53.574;7.770;2023-05-08T12:12:43;102149.91;;;18.15;33.29
45040;BME280;30778;53.574;7.770;2023-05-08T12:15:13;102149.53;;;18.56;32.49
45040;BME280;30778;53.574;7.770;2023-05-08T12:17:40;102150.28;;;18.91;31.01
45040;BME280;30778;53.574;7.770;2023-05-08T12:20:14;102146.28;;;19.00;32.43
45040;BME280;30778;53.574;7.770;2023-05-08T12:22:40;102146.88;;;18.89;32.03
45040;BME280;30778;53.574;7.770;2023-05-08T12:25:07;102150.75;;;18.66;32.31
45040;BME280;30778;53.574;7.770;2023-05-08T12:27:35;102129.59;;;18.98;32.73
45040;BME280;30778;53.574;7.770;2023-05-08T12:30:05;102144.44;;;19.32;31.59
45040;BME280;30778;53.574;7.770;2023-05-08T12:32:32;102140.88;;;19.17;32.36
45040;BME280;30778;53.574;7.770;2023-05-08T12:34:59;102140.88;;;18.85;32.44
45040;BME280;30778;53.574;7.770;2023-05-08T12:37:27;102126.50;;;18.89;32.58
45040;BME280;30778;53.574;7.770;2023-05-08T12:39:53;102134.47;;;19.21;32.08
45040;BME280;30778;53.574;7.770;2023-05-08T12:42:18;102138.84;;;18.91;32.41
45040;BME280;30778;53.574;7.770;2023-05-08T12:44:53;102134.72;;;19.33;32.62
45040;BME280;30778;53.574;7.770;2023-05-08T12:47:19;102132.38;;;20.03;31.52
45040;BME280;30778;53.574;7.770;2023-05-08T12:49:45;102134.34;;;19.99;30.67
45040;BME280;30778;53.574;7.770;2023-05-08T12:52:13;102126.91;;;20.49;30.83
45040;BME280;30778;53.574;7.770;2023-05-08T12:54:45;102131.28;;;21.06;29.37
45040;BME280;30778;53.574;7.770;2023-05-08T12:57:12;102125.34;;;21.15;30.77
45040;BME280;30778;53.574;7.770;2023-05-08T12:59:38;102115.31;;;21.60;28.95
45040;BME280;30778;53.574;7.770;2023-05-08T13:02:11;102110.50;;;20.42;30.77
45040;BME280;30778;53.574;7.770;2023-05-08T13:04:37;102113.25;;;19.67;31.17
45040;BME280;30778;53.574;7.770;2023-05-08T13:07:02;102109.69;;;19.53;32.17
45040;BME280;30778;53.574;7.770;2023-05-08T13:09:28;102116.31;;;19.90;31.70
45040;BME280;30778;53.574;7.770;2023-05-08T13:11:53;102109.25;;;20.48;30.98
45040;BME280;30778;53.574;7.770;2023-05-08T13:14:19;102113.31;;;21.36;30.31
45040;BME280;30778;53.574;7.770;2023-05-08T13:16:45;102113.53;;;20.50;30.35
45040;BME280;30778;53.574;7.770;2023-05-08T13:19:12;102107.72;;;20.72;30.51
45040;BME280;30778;53.574;7.770;2023-05-08T13:21:40;102111.69;;;20.08;31.25
45040;BME280;30778;53.574;7.770;2023-05-08T13:24:08;102108.63;;;19.71;31.91
45040;BME280;30778;53.574;7.770;2023-05-08T13:26:34;102110.31;;;20.45;32.28
45040;BME280;30778;53.574;7.770;2023-05-08T13:28:59;102104.34;;;20.42;30.90
45040;BME280;30778;53.574;7.770;2023-05-08T13:31:24;102089.47;;;20.25;30.98
45040;BME280;30778;53.574;7.770;2023-05-08T13:33:50;102094.28;;;20.18;31.30
45040;BME280;30778;53.574;7.770;2023-05-08T13:36:15;102090.47;;;20.08;31.66
45040;BME280;30778;53.574;7.770;2023-05-08T13:38:41;102090.53;;;20.64;30.72
45040;BME280;30778;53.574;7.770;2023-05-08T13:41:06;102093.03;;;20.52;31.54
45040;BME280;30778;53.574;7.770;2023-05-08T13:43:32;102082.81;;;21.02;31.11
45040;BME280;30778;53.574;7.770;2023-05-08T13:45:57;102085.63;;;21.26;31.23
45040;BME280;30778;53.574;7.770;2023-05-08T13:48:22;102085.16;;;21.07;30.16